Time;durP1;ratioP1;P1;durP2;ratioP2;P2;SDS_P1;SDS_P2;PMS_P1;PMS_P2;Temp;Humidity;BMP_temperature;BMP_pressure;BME280_temperature;BME280_humidity;BME280_pressure;Samples;Min_cycle;Max_cycle;Signal;HPM_P1;HPM_P2
2021/05/14 00:00:11;;;;;;;5.07;3.97;;;;;;;16.26;67.73;99738.88;4981461;28;20041;-71
2021/05/14 00:02:39;;;;;;;6.53;4.05;;;;;;;16.26;67.79;99729.34;5033237;28;20040;-70
2021/05/14 00:05:06;;;;;;;6.72;4.80;;;;;;;16.55;67.54;99746.75;5033269;28;20061;-73
2021/05/14 00:07:32;;;;;;;8.38;4.90;;;;;;;16.69;67.40;99744.16;5033397;28;20032;-71
2021/05/14 00:09:57;;;;;;;7.85;4.72;;;;;;;16.77;67.16;99752.84;5033428;28;20021;-72
2021/05/14 00:12:23;;;;;;;7.30;4.80;;;;;;;16.62;67.41;99751.13;5033387;28;20056;-69
2021/05/14 00:14:48;;;;;;;9.30;4.63;;;;;;;16.58;68.10;99736.31;5032792;28;20133;-72
2021/05/14 00:17:14;;;;;;;7.55;4.80;;;;;;;16.76;68.04;99751.13;5032607;28;20547;-73
2021/05/14 00:19:39;;;;;;;11.40;4.75;;;;;;;16.87;67.31;99730.22;4997741;28;20033;-71
2021/05/14 00:22:05;;;;;;;6.38;4.63;;;;;;;16.63;66.79;99699.84;5030269;28;20075;-69
2021/05/14 00:24:31;;;;;;;13.30;4.88;;;;;;;16.68;67.07;99741.56;5033253;28;20017;-69
2021/05/14 00:26:56;;;;;;;10.30;5.15;;;;;;;16.47;68.46;99744.16;5032251;28;20071;-71
2021/05/14 00:29:22;;;;;;;7.70;5.38;;;;;;;16.27;69.53;99738.03;5032485;28;20021;-72
2021/05/14 00:31:47;;;;;;;6.25;5.40;;;;;;;16.11;70.30;99735.41;5032751;28;20033;-72
2021/05/14 00:34:13;;;;;;;7.53;5.45;;;;;;;15.92;71.07;99731.84;5032376;28;20053;-71
2021/05/14 00:36:38;;;;;;;10.32;6.10;;;;;;;15.78;71.24;99717.91;5032562;28;20535;-72
2021/05/14 00:39:04;;;;;;;10.93;6.13;;;;;;;15.88;71.01;99735.31;5032455;28;20075;-72
2021/05/14 00:41:30;;;;;;;8.95;6.03;;;;;;;15.79;71.61;99737.88;5029679;28;20042;-71
2021/05/14 00:43:55;;;;;;;9.20;6.15;;;;;;;15.23;73.51;99736.72;4998744;28;20040;-69
2021/05/14 00:46:22;;;;;;;8.45;6.50;;;;;;;15.25;73.92;99748.84;5010360;28;20043;-72
2021/05/14 00:48:47;;;;;;;13.40;6.13;;;;;;;15.06;73.63;99728.81;5010023;28;20095;-70
2021/05/14 00:51:13;;;;;;;10.27;6.40;;;;;;;15.18;73.86;99749.69;5010191;28;20113;-69
2021/05/14 00:53:39;;;;;;;10.73;6.40;;;;;;;15.35;73.12;99748.06;5010263;28;20037;-73
2021/05/14 00:56:05;;;;;;;9.07;6.38;;;;;;;15.39;72.29;99763.69;5010358;28;20041;-71
2021/05/14 00:58:30;;;;;;;8.48;5.93;;;;;;;15.34;71.86;99758.47;5007693;28;20046;-70
2021/05/14 01:00:56;;;;;;;7.85;5.88;;;;;;;15.46;70.76;99757.66;5000314;28;20508;-71
2021/05/14 01:03:21;;;;;;;8.18;6.10;;;;;;;15.34;71.32;99759.34;5011352;28;20048;-71
2021/05/14 01:05:47;;;;;;;7.13;5.85;;;;;;;15.02;74.01;99765.16;5005959;28;20025;-69
2021/05/14 01:08:13;;;;;;;8.02;6.25;;;;;;;14.86;74.53;99737.34;5010483;28;20424;-71
2021/05/14 01:10:38;;;;;;;8.57;6.25;;;;;;;14.83;74.38;99756.38;5009755;28;20037;-72
2021/05/14 01:13:04;;;;;;;8.77;6.53;;;;;;;15.00;73.96;99761.72;5009964;28;20037;-73
2021/05/14 01:15:29;;;;;;;9.80;6.75;;;;;;;14.88;74.13;99753.81;5025940;28;20029;-72
2021/05/14 01:17:55;;;;;;;10.35;6.55;;;;;;;14.75;74.60;99760.63;5031990;28;20049;-72
2021/05/14 01:20:28;;;;;;;8.52;6.40;;;;;;;14.87;74.06;99759.88;5031757;28;20065;-72
2021/05/14 01:22:54;;;;;;;8.93;6.22;;;;;;;14.46;75.04;99743.03;5020828;28;20044;-70
2021/05/14 01:25:19;;;;;;;10.70;6.90;;;;;;;14.14;75.66;99709.81;5030899;28;20025;-69
2021/05/14 01:27:45;;;;;;;9.07;6.57;;;;;;;14.36;76.29;99755.03;5031910;28;20017;-70
2021/05/14 01:30:11;;;;;;;10.40;6.65;;;;;;;14.44;75.40;99756.84;5031921;28;20029;-69
2021/05/14 01:32:36;;;;;;;10.75;6.63;;;;;;;14.53;74.73;99750.03;5031164;28;20025;-69
2021/05/14 01:35:02;;;;;;;7.72;6.78;;;;;;;14.71;73.91;99753.69;5031843;28;20099;-69
2021/05/14 01:37:28;;;;;;;9.10;6.28;;;;;;;14.63;73.51;99729.31;5031682;28;20026;-72
2021/05/14 01:39:53;;;;;;;9.02;6.15;;;;;;;14.37;74.97;99762.00;5031559;28;20025;-74
2021/05/14 01:42:19;;;;;;;10.95;6.47;;;;;;;14.30;74.61;99743.75;5031495;28;20021;-71
2021/05/14 01:44:44;;;;;;;9.85;7.10;;;;;;;13.99;76.37;99752.06;5031742;28;20021;-74
2021/05/14 01:47:16;;;;;;;11.25;7.10;;;;;;;13.45;77.49;99717.69;5013481;28;20029;-72
2021/05/14 01:49:41;;;;;;;9.90;7.18;;;;;;;13.41;78.13;99718.50;5031980;28;20022;-74
2021/05/14 01:52:07;;;;;;;12.48;7.43;;;;;;;13.62;78.16;99766.31;5013715;28;20079;-74
2021/05/14 01:54:33;;;;;;;8.27;7.22;;;;;;;13.41;77.96;99734.94;5013949;28;20025;-76
2021/05/14 01:56:58;;;;;;;10.02;7.53;;;;;;;13.76;76.96;99764.78;5031515;28;20056;-73
2021/05/14 01:59:24;;;;;;;11.13;7.72;;;;;;;13.62;77.39;99759.41;5031324;28;20423;-70
2021/05/14 02:01:49;;;;;;;10.80;7.88;;;;;;;13.77;76.98;99770.81;5029645;28;20045;-72
2021/05/14 02:04:15;;;;;;;8.52;7.63;;;;;;;13.62;77.69;99787.94;5030369;28;20100;-73
2021/05/14 02:06:40;;;;;;;9.52;7.45;;;;;;;13.49;76.48;99728.97;5011944;28;20444;-72
2021/05/14 02:09:06;;;;;;;8.93;7.95;;;;;;;13.81;76.32;99773.47;5030332;28;20037;-71
2021/05/14 02:11:32;;;;;;;8.50;7.60;;;;;;;13.95;75.60;99780.56;5029561;28;20408;-71
2021/05/14 02:13:59;;;;;;;10.18;8.43;;;;;;;13.97;75.18;99748.59;5013675;28;20036;-70
2021/05/14 02:16:25;;;;;;;13.45;7.80;;;;;;;14.42;73.93;99779.34;5030607;28;20440;-73
2021/05/14 02:18:51;;;;;;;9.88;7.93;;;;;;;14.47;73.04;99793.25;5029574;28;20032;-68
2021/05/14 02:21:17;;;;;;;13.07;8.00;;;;;;;14.41;73.15;99775.88;5029848;28;20029;-68
2021/05/14 02:23:43;;;;;;;12.73;8.07;;;;;;;14.13;73.98;99772.09;5031084;28;20034;-69
2021/05/14 02:26:08;;;;;;;11.57;8.68;;;;;;;14.04;75.17;99783.25;5031489;28;20487;-68
2021/05/14 02:28:35;;;;;;;9.63;8.52;;;;;;;14.23;74.88;99784.31;5031354;28;20026;-68
2021/05/14 02:31:02;;;;;;;9.73;8.65;;;;;;;14.48;73.85;99782.00;5031044;28;20515;-70
2021/05/14 02:33:27;;;;;;;9.57;8.30;;;;;;;14.65;72.26;99777.84;5031179;28;20033;-69
2021/05/14 02:35:53;;;;;;;11.30;8.65;;;;;;;14.66;72.15;99778.75;5031171;28;20726;-68
2021/05/14 02:38:18;;;;;;;11.55;9.85;;;;;;;14.47;73.24;99790.66;5031182;28;20385;-68
2021/05/14 02:40:44;;;;;;;10.77;7.28;;;;;;;14.56;70.00;99786.41;5031388;28;20033;-69
2021/05/14 02:43:09;;;;;;;9.85;6.13;;;;;;;14.75;68.51;99791.81;5030869;28;20030;-68
2021/05/14 02:45:36;;;;;;;11.00;6.13;;;;;;;14.70;67.39;99781.41;5030970;28;20490;-72
2021/05/14 02:48:02;;;;;;;7.18;5.85;;;;;;;14.68;66.03;99801.28;5013554;28;20572;-69
2021/05/14 02:50:27;;;;;;;9.40;5.53;;;;;;;14.67;65.56;99803.88;5013457;28;20033;-72
2021/05/14 02:52:53;;;;;;;12.40;5.80;;;;;;;14.81;65.44;99804.00;5030986;28;20377;-68
2021/05/14 02:55:19;;;;;;;9.27;5.15;;;;;;;14.77;65.11;99810.03;5031029;28;20385;-68
2021/05/14 02:57:44;;;;;;;15.90;5.80;;;;;;;14.75;64.75;99814.34;5031284;28;20559;-69
2021/05/14 03:00:11;;;;;;;9.75;5.70;;;;;;;14.34;66.27;99811.31;5030880;28;20527;-71
2021/05/14 03:02:37;;;;;;;13.85;5.80;;;;;;;14.34;66.09;99824.28;5030856;28;20132;-69
2021/05/14 03:05:03;;;;;;;9.73;6.35;;;;;;;14.37;66.96;99826.06;5030957;28;20104;-68
2021/05/14 03:07:29;;;;;;;7.93;5.88;;;;;;;14.42;67.12;99820.88;5031030;28;20037;-68
2021/05/14 03:09:54;;;;;;;10.35;5.80;;;;;;;14.39;67.61;99827.81;5030641;28;20415;-68
2021/05/14 03:12:19;;;;;;;12.60;5.75;;;;;;;14.28;68.08;99823.34;5030793;28;20092;-74
2021/05/14 03:14:45;;;;;;;10.10;5.63;;;;;;;14.10;68.20;99824.84;5030826;28;20037;-72
2021/05/14 03:17:10;;;;;;;9.60;5.68;;;;;;;14.24;67.97;99819.81;5031074;28;20045;-72
2021/05/14 03:19:36;;;;;;;13.32;5.53;;;;;;;14.33;67.55;99825.13;5030710;28;20032;-71
2021/05/14 03:22:01;;;;;;;9.95;5.35;;;;;;;14.10;67.51;99783.34;5031035;28;20036;-68
2021/05/14 03:24:27;;;;;;;9.93;5.80;;;;;;;14.35;67.01;99832.94;5030854;28;20039;-74
2021/05/14 03:26:53;;;;;;;10.77;5.80;;;;;;;14.04;67.08;99835.16;5030585;28;20118;-69
2021/05/14 03:29:22;;;;;;;8.25;5.28;;;;;;;13.59;67.10;99817.31;5030697;28;20160;-69
2021/05/14 03:31:48;;;;;;;10.77;4.97;;;;;;;13.74;67.17;99840.00;5031032;28;20058;-68
2021/05/14 03:34:14;;;;;;;8.98;5.30;;;;;;;13.79;67.11;99839.16;5032746;28;20040;-68
2021/05/14 03:36:40;;;;;;;12.95;5.85;;;;;;;13.69;67.77;99838.16;5014906;28;20037;-73
2021/05/14 03:39:10;;;;;;;13.10;5.72;;;;;;;13.77;67.85;99846.06;5032180;28;20042;-74
2021/05/14 03:41:48;;;;;;;;;;;;;;;13.83;68.04;99867.78;5034890;28;20036;-74
2021/05/14 03:44:14;;;;;;;9.73;5.82;;;;;;;13.58;68.98;99870.03;5034418;28;19912;-75
2021/05/14 03:46:40;;;;;;;8.10;5.97;;;;;;;13.35;69.86;99880.00;5034546;28;20112;-73
2021/05/14 03:49:05;;;;;;;10.30;6.15;;;;;;;12.90;71.99;99873.19;5015568;28;20095;-70
2021/05/14 03:51:34;;;;;;;14.57;6.43;;;;;;;12.87;73.19;99875.72;5034223;28;20424;-71
2021/05/14 03:53:59;;;;;;;15.85;7.20;;;;;;;13.19;72.75;99878.84;5034250;28;20113;-68
2021/05/14 03:56:25;;;;;;;7.50;6.05;;;;;;;13.30;72.19;99875.59;5034058;28;20546;-68
2021/05/14 03:58:50;;;;;;;7.97;6.20;;;;;;;13.26;72.37;99870.34;5033567;28;20029;-71
2021/05/14 04:01:17;;;;;;;10.13;6.07;;;;;;;13.16;71.87;99828.69;5024379;28;20029;-69
2021/05/14 04:03:43;;;;;;;22.25;7.63;;;;;;;13.45;71.50;99865.50;5014474;28;20415;-69
2021/05/14 04:06:08;;;;;;;9.98;6.13;;;;;;;13.52;71.19;99871.63;5025994;28;20029;-69
2021/05/14 04:08:34;;;;;;;8.65;5.57;;;;;;;13.50;71.14;99891.50;5033889;28;20039;-74
2021/05/14 04:11:24;;;;;;;9.85;5.22;;;;;;;13.61;70.45;99895.13;5033965;28;20037;-72
2021/05/14 04:16:32;;;;;;;8.60;5.95;;;;;;;13.48;69.42;99867.25;5033569;28;20128;-71
2021/05/14 04:18:57;;;;;;;7.70;5.05;;;;;;;13.66;69.15;99885.69;5033740;28;20112;-71
2021/05/14 04:21:23;;;;;;;7.13;4.70;;;;;;;13.45;69.56;99882.78;5032119;28;20101;-72
2021/05/14 04:23:48;;;;;;;10.32;4.93;;;;;;;13.37;70.18;99878.34;5033487;28;20033;-72
2021/05/14 04:26:14;;;;;;;12.75;5.22;;;;;;;13.48;70.21;99896.63;5033014;28;20137;-72
2021/05/14 04:28:39;;;;;;;9.57;5.72;;;;;;;13.55;70.30;99898.47;5033304;28;20029;-74
2021/05/14 04:31:05;;;;;;;10.05;5.22;;;;;;;13.18;70.46;99850.34;5033491;28;20792;-72
2021/05/14 04:33:30;;;;;;;7.03;5.32;;;;;;;13.43;71.07;99887.91;5033316;28;20040;-72
2021/05/14 04:35:56;;;;;;;11.15;5.38;;;;;;;13.48;70.87;99895.78;5033146;28;20112;-74
2021/05/14 04:38:21;;;;;;;9.02;5.35;;;;;;;13.08;71.58;99852.78;5033460;28;20468;-77
2021/05/14 04:40:47;;;;;;;7.72;5.18;;;;;;;13.03;71.86;99848.34;5033467;28;20113;-75
2021/05/14 04:43:13;;;;;;;8.85;5.53;;;;;;;13.43;71.98;99912.16;5033397;28;20025;-71
2021/05/14 04:45:38;;;;;;;11.90;6.63;;;;;;;13.28;72.96;99919.63;5032916;28;20037;-73
2021/05/14 04:48:05;;;;;;;9.60;6.15;;;;;;;13.24;73.36;99916.09;5033075;28;20021;-72
2021/05/14 04:50:34;;;;;;;14.90;6.32;;;;;;;12.93;73.53;99884.50;5032673;28;20029;-74
2021/05/14 04:53:02;;;;;;;10.93;6.05;;;;;;;12.82;74.45;99852.31;5033324;28;20031;-75
2021/05/14 04:55:28;;;;;;;10.00;7.05;;;;;;;13.09;74.92;99882.16;5032960;28;20495;-75
2021/05/14 04:57:54;;;;;;;13.65;7.25;;;;;;;13.50;75.40;99925.22;5032758;28;20029;-75
2021/05/14 05:00:20;;;;;;;19.52;7.68;;;;;;;13.42;74.90;99875.78;5032916;28;20091;-74
2021/05/14 05:02:45;;;;;;;11.60;8.68;;;;;;;13.55;74.75;99889.84;5032767;28;20026;-72
2021/05/14 05:05:11;;;;;;;11.60;7.88;;;;;;;13.64;76.31;99902.09;5032615;28;20029;-70
2021/05/14 05:07:37;;;;;;;10.40;8.35;;;;;;;13.61;77.38;99889.94;5015025;28;20025;-74
2021/05/14 05:10:02;;;;;;;10.23;9.07;;;;;;;13.83;77.31;99905.81;5032810;28;20408;-74
2021/05/14 05:12:28;;;;;;;14.00;9.90;;;;;;;13.94;77.67;99917.22;5032425;28;20032;-71
2021/05/14 05:14:53;;;;;;;12.38;9.55;;;;;;;14.12;77.25;99918.31;5032602;28;20033;-71
2021/05/14 05:17:19;;;;;;;12.45;9.90;;;;;;;14.31;76.51;99924.66;5014872;28;20091;-72
2021/05/14 05:19:44;;;;;;;11.10;7.75;;;;;;;14.55;77.26;99924.06;5014102;28;20043;-77
2021/05/14 05:22:10;;;;;;;12.30;9.52;;;;;;;14.74;76.26;99925.16;5034691;28;20529;-75
2021/05/14 05:24:36;;;;;;;13.18;8.38;;;;;;;14.94;74.31;99934.91;5032282;28;20511;-70
2021/05/14 05:27:02;;;;;;;12.45;8.52;;;;;;;15.08;73.78;99929.84;5020496;28;20115;-73
2021/05/14 05:29:30;;;;;;;9.63;8.32;;;;;;;15.18;73.51;99929.09;5033088;28;20400;-73
2021/05/14 05:31:56;;;;;;;12.02;8.45;;;;;;;15.34;72.87;99917.13;5030100;28;20029;-73
2021/05/14 05:34:24;;;;;;;11.15;8.43;;;;;;;14.95;73.71;99908.06;5028608;28;20025;-74
2021/05/14 05:36:49;;;;;;;11.27;8.02;;;;;;;14.94;73.52;99888.13;5031840;28;20029;-72
2021/05/14 05:39:15;;;;;;;11.68;7.88;;;;;;;15.15;74.20;99926.47;5032389;28;20025;-73
2021/05/14 05:41:40;;;;;;;12.02;8.10;;;;;;;15.34;73.69;99930.97;5032269;28;20036;-74
2021/05/14 05:44:06;;;;;;;12.77;7.57;;;;;;;15.55;73.11;99928.53;5032077;28;20444;-74
2021/05/14 05:46:31;;;;;;;10.13;7.82;;;;;;;15.59;72.93;99922.50;5032250;28;20060;-71
2021/05/14 05:48:57;;;;;;;10.77;8.48;;;;;;;15.75;72.32;99934.78;5032013;28;20775;-73
2021/05/14 05:51:22;;;;;;;9.02;8.13;;;;;;;15.87;72.36;99930.56;5032219;28;20435;-74
2021/05/14 05:53:48;;;;;;;9.07;7.00;;;;;;;15.95;72.08;99937.53;5032039;28;20076;-73
2021/05/14 05:56:13;;;;;;;12.20;7.20;;;;;;;16.04;71.89;99935.84;5031899;28;20399;-74
2021/05/14 05:58:39;;;;;;;9.35;7.20;;;;;;;16.14;71.51;99938.53;5032055;28;20027;-70
2021/05/14 06:01:05;;;;;;;8.73;6.93;;;;;;;16.20;71.58;99939.41;5031848;28;20484;-69
2021/05/14 06:03:30;;;;;;;13.85;7.93;;;;;;;16.17;71.25;99945.47;5031816;28;20029;-70
2021/05/14 06:05:56;;;;;;;10.32;7.13;;;;;;;16.26;71.64;99945.53;5031766;28;20072;-70
2021/05/14 06:08:21;;;;;;;10.63;7.50;;;;;;;16.37;71.02;99940.38;5032018;28;20070;-73
2021/05/14 06:10:49;;;;;;;9.93;7.43;;;;;;;16.23;71.64;99935.09;5032009;28;20416;-71
2021/05/14 06:13:19;;;;;;;11.52;8.05;;;;;;;16.29;71.90;99952.50;5031856;28;20030;-71
2021/05/14 06:15:44;;;;;;;9.38;7.43;;;;;;;16.31;71.88;99949.03;5031610;28;20059;-70
2021/05/14 06:18:16;;;;;;;9.55;7.57;;;;;;;16.47;71.93;99946.50;5031857;28;20135;-76
2021/05/14 06:31:42;;;;;;;9.73;7.43;;;;;;;17.17;70.41;99938.91;4971087;28;20046;-71
2021/05/14 06:34:07;;;;;;;10.25;7.63;;;;;;;17.03;71.07;99939.75;4970727;28;20126;-71
2021/05/14 06:36:35;;;;;;;10.43;7.60;;;;;;;17.23;71.15;99942.38;4970664;28;20043;-71
2021/05/14 06:39:00;;;;;;;11.25;6.63;;;;;;;17.37;69.76;99929.38;4970245;28;20047;-71
2021/05/14 06:41:26;;;;;;;12.45;7.35;;;;;;;17.45;69.82;99932.84;4970270;28;20031;-71
2021/05/14 06:43:52;;;;;;;14.32;6.70;;;;;;;17.56;68.93;99922.41;4969992;28;20038;-72
2021/05/14 06:46:18;;;;;;;11.40;6.60;;;;;;;17.68;68.53;99934.56;4970244;28;20046;-71
2021/05/14 06:48:44;;;;;;;11.50;7.28;;;;;;;17.75;68.34;99912.81;4970217;28;20421;-71
2021/05/14 06:51:11;;;;;;;8.45;6.68;;;;;;;18.00;67.64;99932.81;4970034;28;20122;-71
2021/05/14 06:53:37;;;;;;;9.57;6.80;;;;;;;18.06;67.06;99945.88;4970205;28;20046;-72
2021/05/14 06:56:03;;;;;;;8.90;6.35;;;;;;;18.19;67.26;99941.47;4970391;28;20034;-71
2021/05/14 06:58:29;;;;;;;7.07;6.30;;;;;;;18.26;67.32;99946.66;5001794;28;20103;-72
2021/05/14 07:00:54;;;;;;;11.00;6.78;;;;;;;18.40;66.80;99949.22;5031318;28;20029;-73
2021/05/14 07:03:20;;;;;;;9.82;6.28;;;;;;;18.39;66.95;99946.63;5031049;28;20543;-76
2021/05/14 07:05:45;;;;;;;13.02;5.78;;;;;;;18.52;65.99;99950.94;5031140;28;20037;-74
2021/05/14 07:08:11;;;;;;;7.60;5.20;;;;;;;18.54;66.50;99945.72;5030813;28;20029;-73
2021/05/14 07:10:36;;;;;;;9.18;5.63;;;;;;;18.72;65.72;99944.75;5035101;28;20464;-74
2021/05/14 07:13:02;;;;;;;8.55;5.13;;;;;;;18.97;63.67;99948.13;5035473;28;20108;-77
2021/05/14 07:15:27;;;;;;;10.75;5.85;;;;;;;18.74;66.78;99946.50;5035232;28;20499;-73
2021/05/14 07:17:53;;;;;;;10.32;4.28;;;;;;;18.49;64.89;99906.53;5034987;28;20080;-71
2021/05/14 07:20:20;;;;;;;6.43;4.22;;;;;;;18.83;65.40;99949.91;5034916;28;20038;-73
2021/05/14 07:22:46;;;;;;;11.55;4.50;;;;;;;18.78;65.16;99949.97;5034755;28;20030;-75
2021/05/14 07:25:12;;;;;;;6.32;4.10;;;;;;;18.62;64.19;99956.13;5035020;28;20104;-74
2021/05/14 07:27:38;;;;;;;7.72;4.07;;;;;;;18.57;64.36;99914.34;5034826;28;20502;-71
2021/05/14 07:30:05;;;;;;;8.10;4.20;;;;;;;18.84;65.15;99936.84;5034951;28;20029;-70
2021/05/14 07:32:31;;;;;;;7.85;5.22;;;;;;;18.87;65.71;99942.06;5035188;28;20029;-70
2021/05/14 07:34:56;;;;;;;8.23;4.80;;;;;;;19.02;64.55;99932.44;5034523;28;20468;-71
2021/05/14 07:37:22;;;;;;;5.18;4.10;;;;;;;18.94;64.38;99903.72;5034402;28;20084;-76
2021/05/14 07:39:47;;;;;;;8.18;4.53;;;;;;;19.17;64.25;99932.31;5034635;28;20025;-77
2021/05/14 07:42:13;;;;;;;6.63;4.32;;;;;;;19.03;62.83;99892.31;5034465;28;20029;-78
2021/05/14 07:44:39;;;;;;;8.90;4.03;;;;;;;19.33;63.75;99927.84;5034249;28;20100;-71
2021/05/14 07:47:05;;;;;;;8.40;4.00;;;;;;;19.28;61.77;99928.75;5034645;28;20450;-71
2021/05/14 07:49:31;;;;;;;6.20;4.32;;;;;;;19.40;62.03;99926.03;5034258;28;20053;-70
2021/05/14 07:51:56;;;;;;;7.38;4.05;;;;;;;19.42;61.12;99942.59;5000476;28;20033;-71
2021/05/14 07:54:22;;;;;;;5.18;3.70;;;;;;;19.47;60.71;99942.56;5034408;28;20022;-72
2021/05/14 07:56:47;;;;;;;11.65;4.03;;;;;;;19.67;64.24;99940.63;5034556;28;20087;-70
2021/05/14 07:59:13;;;;;;;7.10;3.80;;;;;;;19.78;60.02;99935.31;5034134;28;20611;-73
2021/05/14 08:01:39;;;;;;;5.70;3.58;;;;;;;19.93;60.49;99938.69;5034118;28;20025;-73
2021/05/14 08:04:07;;;;;;;6.50;3.70;;;;;;;20.01;60.54;99913.28;5034054;28;20036;-70
2021/05/14 08:06:33;;;;;;;8.20;3.75;;;;;;;19.88;59.97;99883.72;5015647;28;20098;-77
2021/05/14 08:09:02;;;;;;;4.72;3.25;;;;;;;20.32;58.77;99929.50;5034120;28;20548;-77
2021/05/14 08:11:28;;;;;;;14.18;3.88;;;;;;;20.34;56.45;99926.91;5016748;28;20045;-71
2021/05/14 08:13:53;;;;;;;7.28;3.40;;;;;;;20.38;55.51;99927.72;5033125;28;20037;-71
2021/05/14 08:16:19;;;;;;;5.95;2.78;;;;;;;20.47;55.85;99928.50;5034089;28;20034;-77
2021/05/14 08:18:44;;;;;;;8.63;3.33;;;;;;;20.71;54.71;99928.16;5033050;28;20057;-70
2021/05/14 08:21:10;;;;;;;4.72;3.03;;;;;;;20.81;53.79;99935.03;5033885;28;20052;-71
2021/05/14 08:23:35;;;;;;;9.05;2.80;;;;;;;20.81;54.11;99928.06;5034138;28;20040;-73
2021/05/14 08:26:01;;;;;;;6.65;3.28;;;;;;;20.68;53.98;99932.56;5033805;28;20029;-72
2021/05/14 08:28:26;;;;;;;5.38;2.80;;;;;;;20.74;53.91;99926.41;5033894;28;20029;-70
2021/05/14 08:30:52;;;;;;;5.47;2.90;;;;;;;20.86;53.24;99917.50;5033711;28;20580;-72
2021/05/14 08:33:17;;;;;;;6.85;2.83;;;;;;;20.95;55.13;99901.63;5032281;28;20033;-71
2021/05/14 08:35:44;;;;;;;4.53;2.90;;;;;;;21.27;53.06;99918.63;5033805;28;20393;-71
2021/05/14 08:38:10;;;;;;;4.95;2.35;;;;;;;21.40;49.80;99921.91;5033713;28;20091;-75
2021/05/14 09:50:36;;;;;;;11.15;4.00;;;;;;;24.20;31.62;99878.91;5010958;28;20476;-73
2021/05/14 09:53:16;;;;;;;3.28;1.50;;;;;;;24.30;31.07;99854.88;5011075;28;20022;-70
2021/05/14 09:55:50;;;;;;;1.73;1.05;;;;;;;24.36;30.67;99866.13;5010445;28;20025;-74
2021/05/14 09:58:31;;;;;;;3.17;1.30;;;;;;;24.41;31.54;99876.53;5009176;28;20033;-73
2021/05/14 10:00:57;;;;;;;6.75;1.45;;;;;;;24.46;31.27;99879.03;5008056;28;20030;-72
2021/05/14 10:03:31;;;;;;;5.07;1.35;;;;;;;24.71;33.00;99861.59;5009025;28;20030;-73
2021/05/14 10:05:57;;;;;;;2.83;1.25;;;;;;;24.28;32.37;99860.22;5004138;28;20037;-73
2021/05/14 10:08:31;;;;;;;4.30;1.10;;;;;;;24.21;33.71;99849.00;5009907;28;20340;-71
2021/05/14 10:11:01;;;;;;;3.38;1.20;;;;;;;24.67;33.56;99854.69;5009118;28;20041;-71
2021/05/14 10:13:29;;;;;;;4.03;1.38;;;;;;;24.46;34.33;99790.22;5010480;28;20044;-73
2021/05/14 10:15:55;;;;;;;2.42;1.20;;;;;;;24.99;32.65;99836.91;5010506;28;20495;-73
2021/05/14 10:18:22;;;;;;;2.65;1.30;;;;;;;25.04;32.61;99855.25;5009989;28;20038;-73
2021/05/14 10:20:50;;;;;;;4.72;1.17;;;;;;;25.10;31.40;99826.00;5010967;28;20036;-74
2021/05/14 10:23:17;;;;;;;2.70;1.23;;;;;;;25.36;31.17;99845.41;5010839;28;20084;-73
2021/05/14 10:25:49;;;;;;;2.70;1.30;;;;;;;25.38;30.59;99851.50;5010738;28;20832;-74
2021/05/14 10:28:18;;;;;;;6.53;1.95;;;;;;;25.26;30.33;99825.47;5006401;28;20496;-73
2021/05/14 10:31:04;;;;;;;4.43;1.30;;;;;;;25.38;30.89;99850.66;5010534;28;20034;-73
2021/05/14 10:33:48;;;;;;;5.00;2.00;;;;;;;25.47;31.13;99861.78;5013417;28;20018;-73
2021/05/14 10:36:24;;;;;;;4.88;1.58;;;;;;;25.59;30.55;99863.13;5013949;28;20021;-73
2021/05/14 10:39:15;;;;;;;5.10;1.30;;;;;;;25.68;30.50;99865.44;5009712;28;20091;-71
2021/05/14 10:41:55;;;;;;;3.28;1.40;;;;;;;25.73;29.71;99861.78;5011216;28;20032;-73
2021/05/14 10:44:40;;;;;;;;;;;;;;;25.45;30.83;99860.97;5009054;28;20119;-74
2021/05/14 10:47:23;;;;;;;3.63;1.30;;;;;;;24.98;31.35;99855.47;5008514;28;20288;-73
2021/05/14 10:50:02;;;;;;;5.40;1.40;;;;;;;24.62;32.12;99818.75;5009015;28;20046;-72
2021/05/14 10:52:31;;;;;;;27.83;3.05;;;;;;;24.68;31.72;99853.75;5008837;28;20448;-74
2021/05/14 10:54:57;;;;;;;3.10;1.30;;;;;;;24.75;32.24;99848.28;5006234;28;20146;-73
2021/05/14 10:57:46;;;;;;;5.28;1.60;;;;;;;24.80;32.65;99859.53;5008529;28;20038;-74
2021/05/14 11:00:33;;;;;;;7.85;1.92;;;;;;;24.82;32.92;99845.41;5008468;28;20046;-73
2021/05/14 11:03:14;;;;;;;9.05;1.67;;;;;;;24.83;33.03;99848.91;5006063;28;20172;-69
2021/05/14 11:05:45;;;;;;;6.70;1.50;;;;;;;24.93;33.49;99863.53;5007224;28;20042;-73
2021/05/14 11:08:39;;;;;;;2.65;1.40;;;;;;;24.70;33.27;99856.34;5005157;28;20037;-72
2021/05/14 11:11:11;;;;;;;5.32;1.60;;;;;;;24.57;32.98;99844.41;4910981;29;20485;-71
2021/05/14 11:13:44;;;;;;;2.90;1.20;;;;;;;24.64;33.09;99848.59;4939982;29;20071;-73
2021/05/14 11:16:39;;;;;;;1.95;1.20;;;;;;;24.54;32.96;99851.50;4960534;28;20225;-73
2021/05/14 11:19:20;;;;;;;4.43;1.37;;;;;;;24.30;33.34;99823.22;4961412;28;20039;-71
2021/05/14 11:22:25;;;;;;;3.78;1.35;;;;;;;24.48;33.80;99862.25;4961984;28;20042;-70
2021/05/14 11:24:53;;;;;;;7.40;1.67;;;;;;;24.31;34.44;99844.31;4958160;28;20486;-70
2021/05/14 11:27:30;;;;;;;3.05;1.33;;;;;;;24.30;34.24;99854.88;4957839;28;20480;-70
2021/05/14 11:29:57;;;;;;;9.73;1.60;;;;;;;24.19;35.22;99847.31;4961228;28;20039;-71
2021/05/14 11:32:47;;;;;;;2.85;1.45;;;;;;;24.06;35.43;99865.25;4959972;28;20103;-72
2021/05/14 11:35:14;;;;;;;;;;;;;;;24.00;35.08;99868.94;4914420;29;20495;-71
2021/05/14 11:37:57;;;;;;;5.43;1.95;;;;;;;23.88;35.29;99872.72;4906000;29;19915;-71
2021/05/14 11:40:38;;;;;;;6.40;1.58;;;;;;;23.95;36.64;99883.13;4911035;29;20099;-71
2021/05/14 11:43:25;;;;;;;2.25;1.23;;;;;;;23.90;36.72;99889.38;4892221;29;20075;-72
2021/05/14 11:45:51;;;;;;;12.95;2.63;;;;;;;23.94;37.06;99891.94;4897216;29;20143;-71
2021/05/14 11:48:21;;;;;;;5.28;1.90;;;;;;;23.90;36.42;99886.75;4892833;29;20052;-72
2021/05/14 11:50:49;;;;;;;18.88;2.28;;;;;;;23.87;36.45;99892.09;4904115;29;20048;-73
2021/05/14 11:53:16;;;;;;;3.30;1.30;;;;;;;23.92;36.23;99892.00;4890077;29;20066;-72
2021/05/14 11:55:44;;;;;;;6.30;1.88;;;;;;;23.89;35.39;99889.44;4913329;29;20206;-72
2021/05/14 11:58:11;;;;;;;4.53;1.60;;;;;;;23.90;34.95;99897.28;4914298;29;20040;-72
2021/05/14 12:00:46;;;;;;;10.68;2.10;;;;;;;23.80;35.22;99894.94;4917098;29;20044;-72
2021/05/14 12:03:19;;;;;;;8.80;1.83;;;;;;;23.86;37.17;99907.94;4908020;29;20051;-72
2021/05/14 12:05:49;;;;;;;11.95;1.90;;;;;;;23.47;38.62;99876.50;4937337;28;20054;-70
2021/05/14 12:08:21;;;;;;;14.13;1.67;;;;;;;23.39;40.84;99903.00;4989543;28;20085;-74
2021/05/14 12:10:57;;;;;;;6.55;1.55;;;;;;;23.30;41.77;99869.88;4990785;28;20027;-71
2021/05/14 12:13:25;;;;;;;7.95;1.60;;;;;;;23.35;41.89;99904.88;4992159;28;20134;-70
2021/05/14 12:16:15;;;;;;;9.07;1.65;;;;;;;23.10;44.92;99888.75;5008131;28;20096;-73
2021/05/14 12:19:15;;;;;;;9.05;1.70;;;;;;;22.86;45.94;99874.44;5007281;28;20045;-72
2021/05/14 12:21:44;;;;;;;4.68;1.80;;;;;;;22.99;45.09;99903.94;4957490;28;20049;-73
2021/05/14 12:24:22;;;;;;;4.05;1.60;;;;;;;22.84;44.65;99903.41;4946003;28;20154;-73
2021/05/14 12:27:19;;;;;;;2.70;1.50;;;;;;;22.51;44.62;99865.56;4949216;29;20043;-72
2021/05/14 12:29:47;;;;;;;12.00;1.58;;;;;;;22.67;45.43;99893.28;4919290;29;20502;-73
2021/05/14 12:32:18;;;;;;;4.88;1.40;;;;;;;22.60;44.81;99904.81;4950826;29;20043;-73
2021/05/14 12:34:51;;;;;;;10.45;1.60;;;;;;;22.63;43.55;99910.03;4934307;29;20086;-72
2021/05/14 12:37:21;;;;;;;4.10;1.23;;;;;;;22.66;41.94;99899.44;4923034;29;20090;-75
2021/05/14 12:39:48;;;;;;;8.50;1.60;;;;;;;22.79;43.52;99902.63;4950216;29;20134;-73
2021/05/14 12:42:29;;;;;;;6.72;1.50;;;;;;;22.66;44.35;99894.16;4934152;29;20193;-73
2021/05/14 12:44:59;;;;;;;5.70;1.52;;;;;;;22.44;44.60;99883.25;4950995;29;20489;-73
2021/05/14 12:47:29;;;;;;;6.22;1.35;;;;;;;22.36;46.09;99878.13;4961691;28;20121;-73
2021/05/14 12:50:05;;;;;;;3.85;1.40;;;;;;;22.12;47.63;99890.03;4970472;28;20122;-73
2021/05/14 12:52:32;;;;;;;4.60;1.40;;;;;;;22.03;49.51;99891.06;4952453;28;20046;-73
2021/05/14 12:55:21;;;;;;;5.45;1.48;;;;;;;22.08;48.55;99883.94;4965183;28;20035;-73
2021/05/14 12:57:53;;;;;;;2.65;1.30;;;;;;;22.13;46.56;99895.22;4969542;28;20051;-72
2021/05/14 13:00:28;;;;;;;3.00;1.33;;;;;;;22.41;46.81;99896.47;4970683;28;20034;-72